createdAt,value
2023-03-27T00:02:04.788Z,81.33
2023-03-27T00:04:31.338Z,81.65
2023-03-27T00:06:59.395Z,81.84
2023-03-27T00:09:27.259Z,81.88
2023-03-27T00:11:56.242Z,82.10
2023-03-27T00:14:23.839Z,82.05
2023-03-27T00:16:50.955Z,82.02
2023-03-27T00:19:18.828Z,82.14
2023-03-27T00:21:45.364Z,82.16
2023-03-27T00:24:12.572Z,82.16
2023-03-27T00:26:40.915Z,81.98
2023-03-27T00:29:08.049Z,82.34
2023-03-27T00:31:35.080Z,82.20
2023-03-27T00:34:01.857Z,82.45
2023-03-27T00:36:28.470Z,82.61
2023-03-27T00:38:54.883Z,82.98
2023-03-27T00:41:22.785Z,83.14
2023-03-27T00:43:54.117Z,83.40
2023-03-27T00:46:43.783Z,83.40
2023-03-27T00:49:13.154Z,83.36
2023-03-27T00:51:42.573Z,83.33
2023-03-27T00:54:10.836Z,83.42
2023-03-27T00:56:38.649Z,83.60
2023-03-27T00:59:21.049Z,84.00
2023-03-27T01:01:48.619Z,83.82
2023-03-27T01:04:20.378Z,83.97
2023-03-27T01:06:50.189Z,83.94
2023-03-27T01:09:20.238Z,84.10
2023-03-27T01:12:08.978Z,84.27
2023-03-27T01:15:00.813Z,84.16
2023-03-27T01:17:52.157Z,84.34
2023-03-27T01:20:19.107Z,84.27
2023-03-27T01:23:58.724Z,84.35
2023-03-27T01:26:36.800Z,84.27
2023-03-27T01:29:29.983Z,84.48
2023-03-27T01:32:50.644Z,84.48
2023-03-27T01:35:58.160Z,84.40
2023-03-27T01:38:49.185Z,84.31
2023-03-27T01:41:29.748Z,84.15
2023-03-27T01:44:14.677Z,84.19
2023-03-27T01:46:56.669Z,84.05
2023-03-27T01:49:32.963Z,84.24
2023-03-27T01:52:04.862Z,84.01
2023-03-27T01:54:35.964Z,83.87
2023-03-27T01:57:05.336Z,84.02
2023-03-27T01:59:35.861Z,84.14
2023-03-27T02:02:13.088Z,84.28
2023-03-27T02:04:49.097Z,84.02
2023-03-27T02:07:20.474Z,83.96
2023-03-27T02:09:55.489Z,83.74
2023-03-27T02:12:33.740Z,83.87
2023-03-27T02:15:23.706Z,84.10
2023-03-27T02:18:05.372Z,84.62
2023-03-27T02:20:33.374Z,84.40
2023-03-27T02:23:00.659Z,84.64
2023-03-27T02:25:34.967Z,84.89
2023-03-27T02:28:35.477Z,85.15
2023-03-27T02:31:32.801Z,85.14
2023-03-27T02:34:00.474Z,84.76
2023-03-27T02:36:54.923Z,85.13
2023-03-27T02:39:40.138Z,85.01
2023-03-27T02:42:38.970Z,85.91
2023-03-27T02:45:20.847Z,85.78
2023-03-27T02:47:54.580Z,86.14
2023-03-27T02:50:35.447Z,85.95
2023-03-27T02:53:05.182Z,86.10
2023-03-27T02:55:38.948Z,86.34
2023-03-27T02:58:14.280Z,86.61
2023-03-27T03:00:48.614Z,86.52
2023-03-27T03:03:38.830Z,86.69
2023-03-27T03:06:06.941Z,86.63
2023-03-27T03:08:38.131Z,86.80
2023-03-27T03:11:09.042Z,86.90
2023-03-27T03:13:35.926Z,86.84
2023-03-27T03:16:02.438Z,87.25
2023-03-27T03:18:28.835Z,87.15
2023-03-27T03:20:55.694Z,87.27
2023-03-27T03:23:23.534Z,87.45
2023-03-27T03:25:52.606Z,87.19
2023-03-27T03:28:19.181Z,87.45
2023-03-27T03:30:50.382Z,87.68
2023-03-27T03:33:19.466Z,87.69
2023-03-27T03:35:48.400Z,87.77
2023-03-27T03:38:16.244Z,87.86
2023-03-27T03:40:42.651Z,87.95
2023-03-27T03:43:09.064Z,87.92
2023-03-27T03:45:35.663Z,88.19
2023-03-27T03:48:02.196Z,88.35
2023-03-27T03:50:28.665Z,88.42
2023-03-27T03:52:55.100Z,88.71
2023-03-27T03:55:21.538Z,88.37
2023-03-27T03:57:49.038Z,88.64
2023-03-27T04:00:16.986Z,88.80
2023-03-27T04:02:44.067Z,88.71
2023-03-27T04:05:11.063Z,88.82
2023-03-27T04:07:39.998Z,89.10
2023-03-27T04:10:08.592Z,89.20
2023-03-27T04:12:35.044Z,89.10
2023-03-27T04:15:01.442Z,89.01
2023-03-27T04:17:28.440Z,88.85
2023-03-27T04:19:54.841Z,89.21
2023-03-27T04:22:22.869Z,89.48
2023-03-27T04:24:50.581Z,89.37
2023-03-27T04:27:17.836Z,89.57
2023-03-27T04:29:47.694Z,89.55
2023-03-27T04:32:19.074Z,89.56
2023-03-27T04:34:47.171Z,89.60
2023-03-27T04:37:14.597Z,89.54
2023-03-27T04:39:43.436Z,89.69
2023-03-27T04:42:10.521Z,89.64
2023-03-27T04:44:37.736Z,89.64
2023-03-27T04:49:46.946Z,89.71
2023-03-27T04:52:14.341Z,90.13
2023-03-27T04:54:42.010Z,90.08
2023-03-27T04:57:09.932Z,89.83
2023-03-27T04:59:37.204Z,89.81
2023-03-27T05:02:04.999Z,89.48
2023-03-27T05:04:32.228Z,89.41
2023-03-27T05:07:00.055Z,89.29
2023-03-27T05:09:26.633Z,88.98
2023-03-27T05:11:53.060Z,89.07
2023-03-27T05:14:22.502Z,88.95
2023-03-27T05:16:52.453Z,89.05
2023-03-27T05:19:20.153Z,88.94
2023-03-27T05:21:47.625Z,89.32
2023-03-27T05:24:15.408Z,89.50
2023-03-27T05:26:43.259Z,89.35
2023-03-27T05:29:09.898Z,89.45
2023-03-27T05:31:37.046Z,89.56
2023-03-27T05:34:04.248Z,89.54
2023-03-27T05:36:30.716Z,89.49
2023-03-27T05:38:57.989Z,89.36
2023-03-27T05:41:24.946Z,89.47
2023-03-27T05:43:51.784Z,89.44
2023-03-27T05:46:20.774Z,89.42
2023-03-27T05:48:48.414Z,89.49
2023-03-27T05:51:15.133Z,89.49
2023-03-27T05:53:42.146Z,89.49
2023-03-27T05:56:09.623Z,89.51
2023-03-27T05:58:36.520Z,89.59
2023-03-27T06:01:03.459Z,89.38
2023-03-27T06:03:30.533Z,89.53
2023-03-27T06:06:00.202Z,89.52
2023-03-27T06:08:29.395Z,89.53
2023-03-27T06:10:55.978Z,89.32
2023-03-27T06:13:24.070Z,89.81
2023-03-27T06:15:53.990Z,89.51
2023-03-27T06:18:20.619Z,89.51
2023-03-27T06:20:47.188Z,89.30
2023-03-27T06:23:14.428Z,89.27
2023-03-27T06:25:40.844Z,89.32
2023-03-27T06:28:09.450Z,89.16
2023-03-27T06:30:39.503Z,89.19
2023-03-27T06:33:07.735Z,89.01
2023-03-27T06:35:35.181Z,88.68
2023-03-27T06:38:04.618Z,88.57
2023-03-27T06:40:31.956Z,88.72
2023-03-27T06:43:04.277Z,88.62
2023-03-27T06:45:33.943Z,88.40
2023-03-27T06:48:15.342Z,88.12
2023-03-27T06:50:48.642Z,87.81
2023-03-27T06:53:26.489Z,86.96
2023-03-27T06:55:54.795Z,86.53
2023-03-27T06:58:21.709Z,86.27
2023-03-27T07:00:49.840Z,86.08
2023-03-27T07:03:17.919Z,85.61
2023-03-27T07:05:45.063Z,85.18
2023-03-27T07:08:23.643Z,84.61
2023-03-27T07:11:09.856Z,84.21
2023-03-27T07:13:38.686Z,84.50
2023-03-27T07:16:05.827Z,84.18
2023-03-27T07:18:32.410Z,83.58
2023-03-27T07:20:59.132Z,83.27
2023-03-27T07:23:26.674Z,81.86
2023-03-27T07:25:58.099Z,80.61
2023-03-27T07:28:24.900Z,79.62
2023-03-27T07:30:51.377Z,79.48
2023-03-27T07:33:18.560Z,78.14
2023-03-27T07:35:48.065Z,76.31
2023-03-27T07:38:14.754Z,76.48
2023-03-27T07:40:46.009Z,76.28
2023-03-27T07:43:13.497Z,74.53
2023-03-27T07:45:41.581Z,72.12
2023-03-27T07:48:11.491Z,72.04
2023-03-27T07:50:38.228Z,71.91
2023-03-27T07:53:06.453Z,71.03
2023-03-27T07:55:36.767Z,68.98
2023-03-27T07:58:04.066Z,69.22
2023-03-27T08:00:31.474Z,69.02
2023-03-27T08:03:06.754Z,68.43
2023-03-27T08:05:33.689Z,67.32
2023-03-27T08:08:00.165Z,67.73
2023-03-27T08:10:27.508Z,67.56
2023-03-27T08:12:53.921Z,66.95
2023-03-27T08:15:20.434Z,67.25
2023-03-27T08:17:47.827Z,67.35
2023-03-27T08:20:15.274Z,67.74
2023-03-27T08:22:41.918Z,67.81
2023-03-27T08:25:10.263Z,67.05
2023-03-27T08:27:36.937Z,67.83
2023-03-27T08:30:04.511Z,67.26
2023-03-27T08:32:31.826Z,66.33
2023-03-27T08:34:58.513Z,65.14
2023-03-27T08:37:25.043Z,66.12
2023-03-27T08:39:51.424Z,65.53
2023-03-27T08:42:27.493Z,62.54
2023-03-27T08:44:55.300Z,60.49
2023-03-27T08:47:33.862Z,61.50
2023-03-27T08:50:06.412Z,60.94
2023-03-27T08:52:34.116Z,61.83
2023-03-27T08:55:20.815Z,62.78
2023-03-27T08:57:50.227Z,60.70
2023-03-27T09:00:27.800Z,59.52
2023-03-27T09:03:03.941Z,57.94
2023-03-27T09:05:44.323Z,58.45
2023-03-27T09:08:27.873Z,57.27
2023-03-27T09:11:08.217Z,57.62
2023-03-27T09:13:47.045Z,57.29
2023-03-27T09:16:21.427Z,55.73
2023-03-27T09:19:02.760Z,54.86
2023-03-27T09:21:40.648Z,54.92
2023-03-27T09:24:13.502Z,53.47
2023-03-27T09:26:39.912Z,55.04
2023-03-27T09:29:20.167Z,62.54
2023-03-27T09:31:49.179Z,69.21
2023-03-27T09:34:25.145Z,73.32
2023-03-27T09:36:51.705Z,76.17
2023-03-27T09:39:23.673Z,77.97
2023-03-27T09:41:57.959Z,79.02
2023-03-27T09:44:28.537Z,79.56
2023-03-27T09:47:16.893Z,79.37
2023-03-27T09:49:52.945Z,79.61
2023-03-27T09:52:48.787Z,78.59
2023-03-27T09:55:31.891Z,79.33
2023-03-27T09:58:14.159Z,79.51
2023-03-27T10:00:40.722Z,79.17
2023-03-27T10:03:20.021Z,78.62
2023-03-27T10:05:49.416Z,77.60
2023-03-27T10:08:32.175Z,76.34
2023-03-27T10:10:59.103Z,76.69
2023-03-27T10:13:29.220Z,76.41
2023-03-27T10:16:00.858Z,76.00
2023-03-27T10:18:29.872Z,76.69
2023-03-27T10:21:06.638Z,74.54
2023-03-27T10:23:44.013Z,73.22
2023-03-27T10:26:18.764Z,74.45
2023-03-27T10:28:51.586Z,72.37
2023-03-27T10:31:33.148Z,73.41
2023-03-27T10:34:05.964Z,72.48
2023-03-27T10:36:35.303Z,71.82
2023-03-27T10:39:06.665Z,70.70
2023-03-27T10:41:36.151Z,69.84
2023-03-27T10:44:13.482Z,67.01
2023-03-27T10:46:41.010Z,68.89
2023-03-27T10:49:10.525Z,70.61
2023-03-27T10:51:48.079Z,72.19
2023-03-27T10:54:42.424Z,73.55
2023-03-27T10:57:18.599Z,73.98
2023-03-27T10:59:54.242Z,74.52
2023-03-27T11:02:29.183Z,71.87
2023-03-27T11:05:01.366Z,69.79
2023-03-27T11:07:42.468Z,70.38
2023-03-27T11:10:29.161Z,66.48
2023-03-27T11:13:01.542Z,61.18
2023-03-27T11:15:36.857Z,62.59
2023-03-27T11:18:12.505Z,60.38
2023-03-27T11:20:50.266Z,59.91
2023-03-27T11:23:28.536Z,59.87
2023-03-27T11:25:59.729Z,59.04
2023-03-27T11:28:43.345Z,61.26
2023-03-27T11:31:22.002Z,61.20
2023-03-27T11:33:55.090Z,62.61
2023-03-27T11:36:24.418Z,66.61
2023-03-27T11:39:15.419Z,69.64
2023-03-27T11:41:47.030Z,73.34
2023-03-27T11:44:13.711Z,75.07
2023-03-27T11:47:02.007Z,75.41
2023-03-27T11:49:47.736Z,76.03
2023-03-27T11:52:32.528Z,75.89
2023-03-27T11:55:31.247Z,75.39
2023-03-27T11:58:17.414Z,73.06
2023-03-27T12:00:52.152Z,72.56
2023-03-27T12:03:25.045Z,70.49
2023-03-27T12:06:05.606Z,67.90
2023-03-27T12:08:41.200Z,65.43
2023-03-27T12:11:10.536Z,66.42
2023-03-27T12:14:17.657Z,66.57
2023-03-27T12:17:10.821Z,63.32
2023-03-27T12:19:53.048Z,62.60
2023-03-27T12:22:49.303Z,62.03
2023-03-27T12:25:41.357Z,65.19
2023-03-27T12:28:26.044Z,67.09
2023-03-27T12:30:59.057Z,69.22
2023-03-27T12:33:59.783Z,69.92
2023-03-27T12:36:30.896Z,69.83
2023-03-27T12:38:57.891Z,71.60
2023-03-27T12:41:33.509Z,71.16
2023-03-27T12:44:03.609Z,72.86
2023-03-27T12:46:33.150Z,72.90
2023-03-27T12:49:13.630Z,73.96
2023-03-27T12:52:02.749Z,72.69
2023-03-27T12:54:31.681Z,72.57
2023-03-27T12:57:22.279Z,71.43
2023-03-27T12:59:48.785Z,70.09
2023-03-27T13:02:15.850Z,70.03
2023-03-27T13:05:01.004Z,69.82
2023-03-27T13:07:41.339Z,69.70
2023-03-27T13:10:23.174Z,68.98
2023-03-27T13:13:20.283Z,68.71
2023-03-27T13:16:02.627Z,67.55
2023-03-27T13:18:47.222Z,67.09
2023-03-27T13:21:36.371Z,65.24
2023-03-27T13:24:20.802Z,64.78
2023-03-27T13:27:19.457Z,64.84
2023-03-27T13:29:51.402Z,63.88
2023-03-27T13:32:38.798Z,64.58
2023-03-27T13:35:27.426Z,66.81
2023-03-27T13:38:00.723Z,66.40
2023-03-27T13:40:34.463Z,65.94
2023-03-27T13:43:12.416Z,66.24
2023-03-27T13:45:46.833Z,63.65
2023-03-27T13:48:50.400Z,62.54
2023-03-27T13:51:26.553Z,62.11
2023-03-27T13:54:12.836Z,62.45
2023-03-27T13:57:03.388Z,62.49
2023-03-27T13:59:58.808Z,63.24
2023-03-27T14:02:34.276Z,61.96
2023-03-27T14:05:26.742Z,61.04
2023-03-27T14:08:31.179Z,61.84
2023-03-27T14:11:07.080Z,60.35
2023-03-27T14:14:01.317Z,60.38
2023-03-27T14:16:30.703Z,58.21
2023-03-27T14:19:28.633Z,58.35
2023-03-27T14:22:18.530Z,57.95
2023-03-27T14:24:49.033Z,57.86
2023-03-27T14:27:19.357Z,57.96
2023-03-27T14:29:50.389Z,56.55
2023-03-27T14:32:18.132Z,54.79
2023-03-27T14:34:54.029Z,55.71
2023-03-27T14:37:29.010Z,56.06
2023-03-27T14:39:57.176Z,56.68
2023-03-27T14:42:32.987Z,57.07
2023-03-27T14:45:10.962Z,56.94
2023-03-27T14:47:37.498Z,56.43
2023-03-27T14:50:06.111Z,56.13
2023-03-27T14:52:35.217Z,54.98
2023-03-27T14:55:03.832Z,55.49
2023-03-27T14:57:30.446Z,55.38
2023-03-27T14:59:57.277Z,55.84
2023-03-27T15:02:31.795Z,56.88
2023-03-27T15:05:08.191Z,58.50
2023-03-27T15:07:36.283Z,62.93
2023-03-27T15:10:05.498Z,64.46
2023-03-27T15:12:35.978Z,65.20
2023-03-27T15:15:03.503Z,65.14
2023-03-27T15:17:34.496Z,65.15
2023-03-27T15:20:09.938Z,57.25
2023-03-27T15:22:43.124Z,54.50
2023-03-27T15:25:32.032Z,55.22
2023-03-27T15:28:03.160Z,54.83
2023-03-27T15:30:40.650Z,54.23
2023-03-27T15:33:17.341Z,51.00
2023-03-27T15:35:47.670Z,50.55
2023-03-27T15:38:17.147Z,49.98
2023-03-27T15:40:51.026Z,50.68
2023-03-27T15:43:26.335Z,51.14
2023-03-27T15:46:13.806Z,51.00
2023-03-27T15:48:45.156Z,51.89
2023-03-27T15:51:31.856Z,53.04
2023-03-27T15:53:58.956Z,53.46
2023-03-27T15:56:41.034Z,54.04
2023-03-27T15:59:10.976Z,54.84
2023-03-27T16:01:39.764Z,55.23
2023-03-27T16:04:08.246Z,55.48
2023-03-27T16:06:41.075Z,55.80
2023-03-27T16:09:18.937Z,56.87
2023-03-27T16:11:48.328Z,57.49
2023-03-27T16:14:22.515Z,57.16
2023-03-27T16:16:53.634Z,56.65
2023-03-27T16:19:20.230Z,55.66
2023-03-27T16:21:55.242Z,56.53
2023-03-27T16:24:21.791Z,56.55
2023-03-27T16:26:50.368Z,57.28
2023-03-27T16:29:18.659Z,57.16
2023-03-27T16:31:45.308Z,56.23
2023-03-27T16:34:22.515Z,55.82
2023-03-27T16:36:50.002Z,54.77
2023-03-27T16:39:16.486Z,55.20
2023-03-27T16:41:43.156Z,54.08
2023-03-27T16:44:09.573Z,52.82
2023-03-27T16:46:36.065Z,53.43
2023-03-27T16:49:02.645Z,53.17
2023-03-27T16:51:29.604Z,51.82
2023-03-27T16:53:56.068Z,52.42
2023-03-27T16:56:22.558Z,53.20
2023-03-27T16:58:49.232Z,53.26
2023-03-27T17:01:15.699Z,54.58
2023-03-27T17:03:42.279Z,54.67
2023-03-27T17:06:11.452Z,57.50
2023-03-27T17:08:38.013Z,61.78
2023-03-27T17:11:07.593Z,64.60
2023-03-27T17:13:34.412Z,65.92
2023-03-27T17:16:01.110Z,65.99
2023-03-27T17:18:27.764Z,66.48
2023-03-27T17:20:54.343Z,67.16
2023-03-27T17:23:21.181Z,67.46
2023-03-27T17:25:48.368Z,67.95
2023-03-27T17:28:15.051Z,67.84
2023-03-27T17:30:56.663Z,67.91
2023-03-27T17:33:30.195Z,67.88
2023-03-27T17:35:57.042Z,68.11
2023-03-27T17:38:24.118Z,68.01
2023-03-27T17:40:51.160Z,68.39
2023-03-27T17:43:17.733Z,68.63
2023-03-27T17:45:44.327Z,69.15
2023-03-27T17:48:11.552Z,69.47
2023-03-27T17:50:38.978Z,69.78
2023-03-27T17:53:05.514Z,69.85
2023-03-27T17:55:31.998Z,70.30
2023-03-27T17:58:08.977Z,70.18
2023-03-27T18:00:38.491Z,70.47
2023-03-27T18:03:06.301Z,70.57
2023-03-27T18:05:38.061Z,70.80
2023-03-27T18:08:06.057Z,70.71
2023-03-27T18:10:34.818Z,71.34
2023-03-27T18:13:02.525Z,71.26
2023-03-27T18:15:29.603Z,71.42
2023-03-27T18:17:56.088Z,71.74
2023-03-27T18:20:22.569Z,72.20
2023-03-27T18:22:49.096Z,71.51
2023-03-27T18:25:15.588Z,70.02
2023-03-27T18:27:43.372Z,69.44
2023-03-27T18:30:13.511Z,69.16
2023-03-27T18:32:42.720Z,69.12
2023-03-27T18:35:19.778Z,68.81
2023-03-27T18:37:46.816Z,68.88
2023-03-27T18:40:15.426Z,68.43
2023-03-27T18:42:43.923Z,67.89
2023-03-27T18:45:12.661Z,67.97
2023-03-27T18:47:39.433Z,68.01
2023-03-27T18:50:06.971Z,67.64
2023-03-27T18:52:33.419Z,67.16
2023-03-27T18:54:59.860Z,67.50
2023-03-27T18:57:27.629Z,67.58
2023-03-27T18:59:55.251Z,67.58
2023-03-27T19:02:21.797Z,67.56
2023-03-27T19:04:48.558Z,67.73
2023-03-27T19:07:16.412Z,68.05
2023-03-27T19:09:43.180Z,68.42
2023-03-27T19:12:10.525Z,68.74
2023-03-27T19:14:36.969Z,68.98
2023-03-27T19:17:03.994Z,69.19
2023-03-27T19:19:31.987Z,69.48
2023-03-27T19:21:58.680Z,69.42
2023-03-27T19:24:25.196Z,70.01
2023-03-27T19:26:52.667Z,70.34
2023-03-27T19:29:19.271Z,70.57
2023-03-27T19:31:45.718Z,70.90
2023-03-27T19:34:12.265Z,71.10
2023-03-27T19:36:38.644Z,71.36
2023-03-27T19:39:05.091Z,71.64
2023-03-27T19:41:31.607Z,71.87
2023-03-27T19:44:00.190Z,72.03
2023-03-27T19:46:28.592Z,71.98
2023-03-27T19:48:55.842Z,72.06
2023-03-27T19:51:22.893Z,72.41
2023-03-27T19:53:49.376Z,72.29
2023-03-27T19:56:16.145Z,72.70
2023-03-27T19:58:42.745Z,72.87
2023-03-27T20:01:09.392Z,73.04
2023-03-27T20:03:38.419Z,73.20
2023-03-27T20:06:11.796Z,73.18
2023-03-27T20:08:39.938Z,73.33
2023-03-27T20:11:07.179Z,73.79
2023-03-27T20:13:42.407Z,73.72
2023-03-27T20:16:16.478Z,73.87
2023-03-27T20:18:43.541Z,73.88
2023-03-27T20:21:13.711Z,74.08
2023-03-27T20:23:41.856Z,74.38
2023-03-27T20:26:09.111Z,74.47
2023-03-27T20:28:35.719Z,74.79
2023-03-27T20:31:04.197Z,75.07
2023-03-27T20:33:31.099Z,75.28
2023-03-27T20:35:57.774Z,75.43
2023-03-27T20:38:28.659Z,75.75
2023-03-27T20:40:56.401Z,76.27
2023-03-27T20:43:22.969Z,76.31
2023-03-27T20:45:54.885Z,76.79
2023-03-27T20:48:21.928Z,77.14
2023-03-27T20:50:53.280Z,77.18
2023-03-27T20:53:33.902Z,77.39
2023-03-27T20:56:05.831Z,77.61
2023-03-27T20:58:35.399Z,77.89
2023-03-27T21:01:05.020Z,78.18
2023-03-27T21:03:34.930Z,78.43
2023-03-27T21:06:06.157Z,78.67
2023-03-27T21:08:34.478Z,78.80
2023-03-27T21:11:01.989Z,78.89
2023-03-27T21:13:28.919Z,79.40
2023-03-27T21:15:55.400Z,79.69
2023-03-27T21:18:21.811Z,79.73
2023-03-27T21:20:48.354Z,80.12
2023-03-27T21:23:15.113Z,80.28
2023-03-27T21:25:42.022Z,80.68
2023-03-27T21:28:10.734Z,80.84
2023-03-27T21:30:47.354Z,81.24
2023-03-27T21:33:16.400Z,81.28
2023-03-27T21:35:46.760Z,81.52
2023-03-27T21:38:15.518Z,82.00
2023-03-27T21:40:42.815Z,81.88
2023-03-27T21:43:09.409Z,82.13
2023-03-27T21:45:36.447Z,82.17
2023-03-27T21:48:03.253Z,82.38
2023-03-27T21:50:29.833Z,82.59
2023-03-27T21:52:56.445Z,82.75
2023-03-27T21:55:23.075Z,82.96
2023-03-27T21:57:49.629Z,82.93
2023-03-27T22:00:16.322Z,83.04
2023-03-27T22:02:42.894Z,83.30
2023-03-27T22:05:09.850Z,83.23
2023-03-27T22:07:36.743Z,83.46
2023-03-27T22:10:06.192Z,83.40
2023-03-27T22:12:36.979Z,83.41
2023-03-27T22:15:05.948Z,83.65
2023-03-27T22:17:34.835Z,83.62
2023-03-27T22:20:01.284Z,83.96
2023-03-27T22:22:27.729Z,84.03
2023-03-27T22:24:54.225Z,83.95
2023-03-27T22:27:20.662Z,84.29
2023-03-27T22:29:47.106Z,84.33
2023-03-27T22:32:13.673Z,84.25
2023-03-27T22:34:40.269Z,84.19
2023-03-27T22:37:06.738Z,84.41
2023-03-27T22:39:33.337Z,84.47
2023-03-27T22:41:59.726Z,84.61
2023-03-27T22:44:26.386Z,84.50
2023-03-27T22:46:53.027Z,84.46
2023-03-27T22:49:19.586Z,84.71
2023-03-27T22:51:46.017Z,84.76
2023-03-27T22:54:12.562Z,85.11
2023-03-27T22:56:39.086Z,84.78
2023-03-27T22:59:06.096Z,85.18
2023-03-27T23:01:32.649Z,85.26
2023-03-27T23:03:59.217Z,85.32
2023-03-27T23:06:25.920Z,85.24
2023-03-27T23:08:52.565Z,85.53
2023-03-27T23:11:19.374Z,85.58
2023-03-27T23:13:46.409Z,85.54
2023-03-27T23:16:13.381Z,85.60
2023-03-27T23:18:40.218Z,85.59
2023-03-27T23:21:09.303Z,85.79
2023-03-27T23:23:38.307Z,85.78
2023-03-27T23:26:06.628Z,85.55
2023-03-27T23:28:35.653Z,85.79
2023-03-27T23:31:07.628Z,86.04
2023-03-27T23:33:37.498Z,85.91
2023-03-27T23:36:06.073Z,85.98
2023-03-27T23:38:32.988Z,85.91
2023-03-27T23:41:01.083Z,86.04
2023-03-27T23:43:29.009Z,86.26
2023-03-27T23:45:56.098Z,86.24
2023-03-27T23:48:23.360Z,86.33
2023-03-27T23:50:49.970Z,86.30
2023-03-27T23:53:16.999Z,86.40
2023-03-27T23:55:43.462Z,86.63
2023-03-27T23:58:09.958Z,86.64
